sensor_id;sensor_type;location;lat;lon;timestamp;temperature;humidity
19908;DHT22;10116;53.112;7.356;2023-04-22T00:01:42;25.20;13.70
19908;DHT22;10116;53.112;7.356;2023-04-22T00:04:08;25.20;13.30
19908;DHT22;10116;53.112;7.356;2023-04-22T00:06:34;25.20;13.80
19908;DHT22;10116;53.112;7.356;2023-04-22T00:09:00;25.20;13.50
19908;DHT22;10116;53.112;7.356;2023-04-22T00:11:25;25.20;13.60
19908;DHT22;10116;53.112;7.356;2023-04-22T00:13:51;25.20;14.20
19908;DHT22;10116;53.112;7.356;2023-04-22T00:16:17;25.20;13.70
19908;DHT22;10116;53.112;7.356;2023-04-22T00:18:42;25.20;13.70
19908;DHT22;10116;53.112;7.356;2023-04-22T00:21:08;25.20;14.10
19908;DHT22;10116;53.112;7.356;2023-04-22T00:23:34;25.20;14.00
19908;DHT22;10116;53.112;7.356;2023-04-22T00:26:00;25.20;14.30
19908;DHT22;10116;53.112;7.356;2023-04-22T00:28:26;25.20;14.50
19908;DHT22;10116;53.112;7.356;2023-04-22T00:30:52;25.20;14.90
19908;DHT22;10116;53.112;7.356;2023-04-22T00:33:17;25.20;13.70
19908;DHT22;10116;53.112;7.356;2023-04-22T00:35:45;25.20;14.00
19908;DHT22;10116;53.112;7.356;2023-04-22T00:38:11;25.10;13.90
19908;DHT22;10116;53.112;7.356;2023-04-22T00:40:36;25.10;13.90
19908;DHT22;10116;53.112;7.356;2023-04-22T00:43:02;25.10;16.30
19908;DHT22;10116;53.112;7.356;2023-04-22T00:45:29;25.10;14.10
19908;DHT22;10116;53.112;7.356;2023-04-22T00:47:55;25.20;13.90
19908;DHT22;10116;53.112;7.356;2023-04-22T00:50:21;25.10;14.40
19908;DHT22;10116;53.112;7.356;2023-04-22T00:52:47;25.10;14.60
19908;DHT22;10116;53.112;7.356;2023-04-22T00:55:13;25.10;14.30
19908;DHT22;10116;53.112;7.356;2023-04-22T00:57:39;25.10;14.40
19908;DHT22;10116;53.112;7.356;2023-04-22T01:00:06;25.10;14.10
19908;DHT22;10116;53.112;7.356;2023-04-22T01:02:35;25.10;14.20
19908;DHT22;10116;53.112;7.356;2023-04-22T01:05:01;25.10;14.40
19908;DHT22;10116;53.112;7.356;2023-04-22T01:07:28;25.10;14.20
19908;DHT22;10116;53.112;7.356;2023-04-22T01:09:53;25.10;14.10
19908;DHT22;10116;53.112;7.356;2023-04-22T01:12:19;25.10;14.40
19908;DHT22;10116;53.112;7.356;2023-04-22T01:14:45;25.10;14.70
19908;DHT22;10116;53.112;7.356;2023-04-22T01:17:10;25.10;14.10
19908;DHT22;10116;53.112;7.356;2023-04-22T01:19:38;25.10;14.50
19908;DHT22;10116;53.112;7.356;2023-04-22T01:22:04;25.10;15.10
19908;DHT22;10116;53.112;7.356;2023-04-22T01:24:32;25.10;14.10
19908;DHT22;10116;53.112;7.356;2023-04-22T01:26:58;25.10;14.80
19908;DHT22;10116;53.112;7.356;2023-04-22T01:29:24;25.10;14.20
19908;DHT22;10116;53.112;7.356;2023-04-22T01:31:50;25.10;15.10
19908;DHT22;10116;53.112;7.356;2023-04-22T01:34:16;25.10;15.10
19908;DHT22;10116;53.112;7.356;2023-04-22T01:36:43;25.10;14.40
19908;DHT22;10116;53.112;7.356;2023-04-22T01:39:09;25.10;14.60
19908;DHT22;10116;53.112;7.356;2023-04-22T01:41:34;25.10;15.00
19908;DHT22;10116;53.112;7.356;2023-04-22T01:44:02;25.00;14.90
19908;DHT22;10116;53.112;7.356;2023-04-22T01:46:28;25.10;15.10
19908;DHT22;10116;53.112;7.356;2023-04-22T01:48:53;25.00;14.40
19908;DHT22;10116;53.112;7.356;2023-04-22T01:51:19;25.10;15.10
19908;DHT22;10116;53.112;7.356;2023-04-22T01:53:46;25.10;15.30
19908;DHT22;10116;53.112;7.356;2023-04-22T01:56:11;25.10;24.10
19908;DHT22;10116;53.112;7.356;2023-04-22T01:58:38;25.10;14.90
19908;DHT22;10116;53.112;7.356;2023-04-22T02:01:05;25.10;15.40
19908;DHT22;10116;53.112;7.356;2023-04-22T02:03:31;25.10;15.50
19908;DHT22;10116;53.112;7.356;2023-04-22T02:05:56;25.10;15.40
19908;DHT22;10116;53.112;7.356;2023-04-22T02:08:22;25.10;15.40
19908;DHT22;10116;53.112;7.356;2023-04-22T02:10:48;25.10;15.00
19908;DHT22;10116;53.112;7.356;2023-04-22T02:13:13;25.10;15.30
19908;DHT22;10116;53.112;7.356;2023-04-22T02:15:39;25.10;15.60
19908;DHT22;10116;53.112;7.356;2023-04-22T02:18:06;25.10;24.80
19908;DHT22;10116;53.112;7.356;2023-04-22T02:20:31;25.10;15.80
19908;DHT22;10116;53.112;7.356;2023-04-22T02:22:57;25.00;15.70
19908;DHT22;10116;53.112;7.356;2023-04-22T02:25:23;25.10;15.70
19908;DHT22;10116;53.112;7.356;2023-04-22T02:27:48;25.10;16.00
19908;DHT22;10116;53.112;7.356;2023-04-22T02:30:14;25.10;15.90
19908;DHT22;10116;53.112;7.356;2023-04-22T02:32:40;25.10;16.20
19908;DHT22;10116;53.112;7.356;2023-04-22T02:35:06;25.10;15.90
19908;DHT22;10116;53.112;7.356;2023-04-22T02:37:32;25.10;16.20
19908;DHT22;10116;53.112;7.356;2023-04-22T02:39:57;25.10;16.30
19908;DHT22;10116;53.112;7.356;2023-04-22T02:42:23;25.10;16.10
19908;DHT22;10116;53.112;7.356;2023-04-22T02:44:48;25.10;16.20
19908;DHT22;10116;53.112;7.356;2023-04-22T02:47:16;25.10;16.70
19908;DHT22;10116;53.112;7.356;2023-04-22T02:49:41;25.10;16.50
19908;DHT22;10116;53.112;7.356;2023-04-22T02:52:07;25.10;16.50
19908;DHT22;10116;53.112;7.356;2023-04-22T02:54:32;25.10;16.90
19908;DHT22;10116;53.112;7.356;2023-04-22T02:56:58;25.10;16.90
19908;DHT22;10116;53.112;7.356;2023-04-22T02:59:23;25.10;17.00
19908;DHT22;10116;53.112;7.356;2023-04-22T03:01:49;25.10;17.70
19908;DHT22;10116;53.112;7.356;2023-04-22T03:04:15;25.10;16.90
19908;DHT22;10116;53.112;7.356;2023-04-22T03:06:40;25.10;17.20
19908;DHT22;10116;53.112;7.356;2023-04-22T03:09:06;25.10;17.10
19908;DHT22;10116;53.112;7.356;2023-04-22T03:11:31;25.10;17.30
19908;DHT22;10116;53.112;7.356;2023-04-22T03:13:57;25.10;17.20
19908;DHT22;10116;53.112;7.356;2023-04-22T03:16:23;25.10;17.60
19908;DHT22;10116;53.112;7.356;2023-04-22T03:18:49;25.10;17.40
19908;DHT22;10116;53.112;7.356;2023-04-22T03:21:14;25.10;26.90
19908;DHT22;10116;53.112;7.356;2023-04-22T03:23:40;25.10;17.30
19908;DHT22;10116;53.112;7.356;2023-04-22T03:26:06;25.10;17.90
19908;DHT22;10116;53.112;7.356;2023-04-22T03:28:31;25.20;17.90
19908;DHT22;10116;53.112;7.356;2023-04-22T03:30:57;25.20;18.20
19908;DHT22;10116;53.112;7.356;2023-04-22T03:33:23;25.30;19.00
19908;DHT22;10116;53.112;7.356;2023-04-22T03:35:49;25.30;19.50
19908;DHT22;10116;53.112;7.356;2023-04-22T03:38:15;25.40;20.30
19908;DHT22;10116;53.112;7.356;2023-04-22T03:40:43;25.50;20.90
19908;DHT22;10116;53.112;7.356;2023-04-22T03:43:09;25.50;21.00
19908;DHT22;10116;53.112;7.356;2023-04-22T03:45:35;25.60;21.40
19908;DHT22;10116;53.112;7.356;2023-04-22T03:48:00;25.60;22.20
19908;DHT22;10116;53.112;7.356;2023-04-22T03:50:26;25.60;22.60
19908;DHT22;10116;53.112;7.356;2023-04-22T03:52:51;25.60;21.90
19908;DHT22;10116;53.112;7.356;2023-04-22T03:55:17;25.60;22.50
19908;DHT22;10116;53.112;7.356;2023-04-22T03:57:42;25.60;21.80
19908;DHT22;10116;53.112;7.356;2023-04-22T04:00:08;25.60;22.60
19908;DHT22;10116;53.112;7.356;2023-04-22T04:02:34;25.70;22.20
19908;DHT22;10116;53.112;7.356;2023-04-22T04:05:00;25.60;22.00
19908;DHT22;10116;53.112;7.356;2023-04-22T04:07:26;25.60;22.30
19908;DHT22;10116;53.112;7.356;2023-04-22T04:09:52;25.60;21.90
19908;DHT22;10116;53.112;7.356;2023-04-22T04:12:17;25.60;22.00
19908;DHT22;10116;53.112;7.356;2023-04-22T04:14:43;25.60;21.80
19908;DHT22;10116;53.112;7.356;2023-04-22T04:17:08;25.60;21.70
19908;DHT22;10116;53.112;7.356;2023-04-22T04:19:35;25.60;22.00
19908;DHT22;10116;53.112;7.356;2023-04-22T04:22:01;25.60;21.80
19908;DHT22;10116;53.112;7.356;2023-04-22T04:24:27;25.60;21.80
19908;DHT22;10116;53.112;7.356;2023-04-22T04:26:53;25.60;22.20
19908;DHT22;10116;53.112;7.356;2023-04-22T04:29:18;25.60;21.60
19908;DHT22;10116;53.112;7.356;2023-04-22T04:31:48;25.60;21.70
19908;DHT22;10116;53.112;7.356;2023-04-22T04:34:13;25.70;22.40
19908;DHT22;10116;53.112;7.356;2023-04-22T04:36:39;25.70;31.90
19908;DHT22;10116;53.112;7.356;2023-04-22T04:39:05;25.80;23.50
19908;DHT22;10116;53.112;7.356;2023-04-22T04:41:34;25.80;23.00
19908;DHT22;10116;53.112;7.356;2023-04-22T04:43:59;25.80;23.00
19908;DHT22;10116;53.112;7.356;2023-04-22T04:46:25;25.90;23.20
19908;DHT22;10116;53.112;7.356;2023-04-22T04:48:54;25.90;23.20
19908;DHT22;10116;53.112;7.356;2023-04-22T04:51:19;25.90;23.90
19908;DHT22;10116;53.112;7.356;2023-04-22T04:53:45;25.90;23.10
19908;DHT22;10116;53.112;7.356;2023-04-22T04:56:11;25.90;23.10
19908;DHT22;10116;53.112;7.356;2023-04-22T04:58:37;25.90;23.40
19908;DHT22;10116;53.112;7.356;2023-04-22T05:01:02;25.90;23.40
19908;DHT22;10116;53.112;7.356;2023-04-22T05:03:28;25.90;23.70
19908;DHT22;10116;53.112;7.356;2023-04-22T05:05:53;25.90;23.10
19908;DHT22;10116;53.112;7.356;2023-04-22T05:08:19;25.90;23.40
19908;DHT22;10116;53.112;7.356;2023-04-22T05:10:45;25.90;23.10
19908;DHT22;10116;53.112;7.356;2023-04-22T05:13:10;25.90;23.10
19908;DHT22;10116;53.112;7.356;2023-04-22T05:15:36;25.90;23.00
19908;DHT22;10116;53.112;7.356;2023-04-22T05:18:02;25.90;23.10
19908;DHT22;10116;53.112;7.356;2023-04-22T05:20:27;25.90;23.00
19908;DHT22;10116;53.112;7.356;2023-04-22T05:22:53;25.90;22.90
19908;DHT22;10116;53.112;7.356;2023-04-22T05:25:18;25.90;23.00
19908;DHT22;10116;53.112;7.356;2023-04-22T05:27:44;25.90;22.90
19908;DHT22;10116;53.112;7.356;2023-04-22T05:30:10;25.90;23.30
19908;DHT22;10116;53.112;7.356;2023-04-22T05:32:35;26.00;24.00
19908;DHT22;10116;53.112;7.356;2023-04-22T05:35:02;26.10;34.40
19908;DHT22;10116;53.112;7.356;2023-04-22T05:37:27;26.10;24.40
19908;DHT22;10116;53.112;7.356;2023-04-22T05:39:53;26.10;24.60
19908;DHT22;10116;53.112;7.356;2023-04-22T05:42:18;26.20;24.50
19908;DHT22;10116;53.112;7.356;2023-04-22T05:44:44;26.20;24.80
19908;DHT22;10116;53.112;7.356;2023-04-22T05:47:10;26.20;24.80
19908;DHT22;10116;53.112;7.356;2023-04-22T05:49:35;26.20;25.00
19908;DHT22;10116;53.112;7.356;2023-04-22T05:52:01;26.20;25.00
19908;DHT22;10116;53.112;7.356;2023-04-22T05:54:27;26.20;24.80
19908;DHT22;10116;53.112;7.356;2023-04-22T05:56:54;26.20;24.80
19908;DHT22;10116;53.112;7.356;2023-04-22T05:59:20;26.20;24.90
19908;DHT22;10116;53.112;7.356;2023-04-22T06:01:45;26.20;24.60
19908;DHT22;10116;53.112;7.356;2023-04-22T06:04:11;26.20;24.40
19908;DHT22;10116;53.112;7.356;2023-04-22T06:06:37;26.10;24.20
19908;DHT22;10116;53.112;7.356;2023-04-22T06:09:02;26.20;25.10
19908;DHT22;10116;53.112;7.356;2023-04-22T06:11:28;26.20;24.80
19908;DHT22;10116;53.112;7.356;2023-04-22T06:13:54;26.20;24.10
19908;DHT22;10116;53.112;7.356;2023-04-22T06:16:21;26.20;23.80
19908;DHT22;10116;53.112;7.356;2023-04-22T06:18:46;26.20;24.70
19908;DHT22;10116;53.112;7.356;2023-04-22T06:21:12;26.10;24.20
19908;DHT22;10116;53.112;7.356;2023-04-22T06:23:38;26.10;23.90
19908;DHT22;10116;53.112;7.356;2023-04-22T06:26:03;26.10;23.90
19908;DHT22;10116;53.112;7.356;2023-04-22T06:28:29;26.20;23.40
19908;DHT22;10116;53.112;7.356;2023-04-22T06:30:55;26.20;24.10
19908;DHT22;10116;53.112;7.356;2023-04-22T06:33:20;26.20;24.50
19908;DHT22;10116;53.112;7.356;2023-04-22T06:35:46;26.20;24.30
19908;DHT22;10116;53.112;7.356;2023-04-22T06:38:12;26.30;24.70
19908;DHT22;10116;53.112;7.356;2023-04-22T06:40:37;26.30;25.40
19908;DHT22;10116;53.112;7.356;2023-04-22T06:43:03;26.30;25.00
19908;DHT22;10116;53.112;7.356;2023-04-22T06:45:31;26.30;25.00
19908;DHT22;10116;53.112;7.356;2023-04-22T06:47:56;26.30;24.80
19908;DHT22;10116;53.112;7.356;2023-04-22T06:50:22;26.30;25.20
19908;DHT22;10116;53.112;7.356;2023-04-22T06:52:47;26.40;25.70
19908;DHT22;10116;53.112;7.356;2023-04-22T06:55:13;26.40;24.60
19908;DHT22;10116;53.112;7.356;2023-04-22T06:57:39;26.40;24.60
19908;DHT22;10116;53.112;7.356;2023-04-22T07:00:05;26.30;24.50
19908;DHT22;10116;53.112;7.356;2023-04-22T07:02:34;26.30;24.20
19908;DHT22;10116;53.112;7.356;2023-04-22T07:04:59;26.30;24.40
19908;DHT22;10116;53.112;7.356;2023-04-22T07:07:25;26.30;24.30
19908;DHT22;10116;53.112;7.356;2023-04-22T07:09:51;26.30;24.00
19908;DHT22;10116;53.112;7.356;2023-04-22T07:12:16;26.30;24.30
19908;DHT22;10116;53.112;7.356;2023-04-22T07:14:43;26.30;23.70
19908;DHT22;10116;53.112;7.356;2023-04-22T07:17:09;26.20;23.60
19908;DHT22;10116;53.112;7.356;2023-04-22T07:19:35;26.20;23.30
19908;DHT22;10116;53.112;7.356;2023-04-22T07:22:00;26.20;23.40
19908;DHT22;10116;53.112;7.356;2023-04-22T07:24:27;26.20;23.30
19908;DHT22;10116;53.112;7.356;2023-04-22T07:26:53;26.20;23.80
19908;DHT22;10116;53.112;7.356;2023-04-22T07:29:19;26.30;24.40
19908;DHT22;10116;53.112;7.356;2023-04-22T07:31:44;26.30;24.30
19908;DHT22;10116;53.112;7.356;2023-04-22T07:34:10;26.30;24.90
19908;DHT22;10116;53.112;7.356;2023-04-22T07:36:36;26.30;24.40
19908;DHT22;10116;53.112;7.356;2023-04-22T07:39:02;26.40;24.50
19908;DHT22;10116;53.112;7.356;2023-04-22T07:41:28;26.40;24.70
19908;DHT22;10116;53.112;7.356;2023-04-22T07:43:54;26.40;24.60
19908;DHT22;10116;53.112;7.356;2023-04-22T07:46:19;26.40;24.70
19908;DHT22;10116;53.112;7.356;2023-04-22T07:48:45;26.40;24.20
19908;DHT22;10116;53.112;7.356;2023-04-22T07:51:11;26.40;24.90
19908;DHT22;10116;53.112;7.356;2023-04-22T07:53:36;26.40;24.40
19908;DHT22;10116;53.112;7.356;2023-04-22T07:56:02;26.40;24.40
19908;DHT22;10116;53.112;7.356;2023-04-22T07:58:28;26.40;24.50
19908;DHT22;10116;53.112;7.356;2023-04-22T08:00:53;26.30;24.60
19908;DHT22;10116;53.112;7.356;2023-04-22T08:03:19;26.40;24.50
19908;DHT22;10116;53.112;7.356;2023-04-22T08:05:45;26.30;24.00
19908;DHT22;10116;53.112;7.356;2023-04-22T08:08:10;26.40;24.30
19908;DHT22;10116;53.112;7.356;2023-04-22T08:10:36;26.30;24.10
19908;DHT22;10116;53.112;7.356;2023-04-22T08:13:01;26.40;24.80
19908;DHT22;10116;53.112;7.356;2023-04-22T08:15:27;26.30;24.10
19908;DHT22;10116;53.112;7.356;2023-04-22T08:17:53;26.30;23.80
19908;DHT22;10116;53.112;7.356;2023-04-22T08:20:18;26.30;23.80
19908;DHT22;10116;53.112;7.356;2023-04-22T08:22:44;26.30;24.30
19908;DHT22;10116;53.112;7.356;2023-04-22T08:25:11;26.30;23.70
19908;DHT22;10116;53.112;7.356;2023-04-22T08:27:36;26.30;24.50
19908;DHT22;10116;53.112;7.356;2023-04-22T08:30:03;26.30;23.70
19908;DHT22;10116;53.112;7.356;2023-04-22T08:32:29;26.30;23.80
19908;DHT22;10116;53.112;7.356;2023-04-22T08:34:54;26.30;24.00
19908;DHT22;10116;53.112;7.356;2023-04-22T08:37:20;26.30;23.90
19908;DHT22;10116;53.112;7.356;2023-04-22T08:39:46;26.30;23.90
19908;DHT22;10116;53.112;7.356;2023-04-22T08:42:12;26.30;23.80
19908;DHT22;10116;53.112;7.356;2023-04-22T08:44:38;26.30;23.50
19908;DHT22;10116;53.112;7.356;2023-04-22T08:47:04;26.30;24.00
19908;DHT22;10116;53.112;7.356;2023-04-22T08:49:30;26.20;23.90
19908;DHT22;10116;53.112;7.356;2023-04-22T08:51:56;26.20;23.90
19908;DHT22;10116;53.112;7.356;2023-04-22T08:54:25;26.20;24.00
19908;DHT22;10116;53.112;7.356;2023-04-22T08:56:51;26.20;23.50
19908;DHT22;10116;53.112;7.356;2023-04-22T08:59:18;26.20;23.60
19908;DHT22;10116;53.112;7.356;2023-04-22T09:01:49;26.20;23.50
19908;DHT22;10116;53.112;7.356;2023-04-22T09:04:17;26.20;23.70
19908;DHT22;10116;53.112;7.356;2023-04-22T09:06:43;26.20;23.40
19908;DHT22;10116;53.112;7.356;2023-04-22T09:09:09;26.20;23.60
19908;DHT22;10116;53.112;7.356;2023-04-22T09:11:35;26.20;23.70
19908;DHT22;10116;53.112;7.356;2023-04-22T09:14:04;26.20;23.90
19908;DHT22;10116;53.112;7.356;2023-04-22T09:16:31;26.20;23.90
19908;DHT22;10116;53.112;7.356;2023-04-22T09:18:57;26.20;23.60
19908;DHT22;10116;53.112;7.356;2023-04-22T09:21:26;26.20;23.90
19908;DHT22;10116;53.112;7.356;2023-04-22T09:23:53;26.20;24.20
19908;DHT22;10116;53.112;7.356;2023-04-22T09:26:23;26.20;23.90
19908;DHT22;10116;53.112;7.356;2023-04-22T09:28:50;26.20;24.10
19908;DHT22;10116;53.112;7.356;2023-04-22T09:31:17;26.20;24.00
19908;DHT22;10116;53.112;7.356;2023-04-22T09:33:50;26.10;23.70
19908;DHT22;10116;53.112;7.356;2023-04-22T09:36:19;26.10;24.00
19908;DHT22;10116;53.112;7.356;2023-04-22T09:38:57;26.10;23.90
19908;DHT22;10116;53.112;7.356;2023-04-22T09:41:28;26.10;24.50
19908;DHT22;10116;53.112;7.356;2023-04-22T09:43:55;26.10;24.20
19908;DHT22;10116;53.112;7.356;2023-04-22T09:46:22;26.10;24.30
19908;DHT22;10116;53.112;7.356;2023-04-22T09:48:49;26.10;24.20
19908;DHT22;10116;53.112;7.356;2023-04-22T09:51:16;26.10;24.00
19908;DHT22;10116;53.112;7.356;2023-04-22T09:53:42;26.10;25.00
19908;DHT22;10116;53.112;7.356;2023-04-22T09:56:08;26.10;24.30
19908;DHT22;10116;53.112;7.356;2023-04-22T09:58:38;26.10;24.20
19908;DHT22;10116;53.112;7.356;2023-04-22T10:01:04;26.10;24.50
19908;DHT22;10116;53.112;7.356;2023-04-22T10:03:31;26.20;24.40
19908;DHT22;10116;53.112;7.356;2023-04-22T10:05:57;26.20;24.90
19908;DHT22;10116;53.112;7.356;2023-04-22T10:08:23;26.20;25.50
19908;DHT22;10116;53.112;7.356;2023-04-22T10:10:49;26.30;26.60
19908;DHT22;10116;53.112;7.356;2023-04-22T10:13:15;26.40;27.20
19908;DHT22;10116;53.112;7.356;2023-04-22T10:15:48;26.40;27.50
19908;DHT22;10116;53.112;7.356;2023-04-22T10:18:20;26.50;27.70
19908;DHT22;10116;53.112;7.356;2023-04-22T10:20:47;26.50;28.00
19908;DHT22;10116;53.112;7.356;2023-04-22T10:23:17;26.50;28.50
19908;DHT22;10116;53.112;7.356;2023-04-22T10:25:55;26.50;28.90
19908;DHT22;10116;53.112;7.356;2023-04-22T10:28:21;26.50;29.00
19908;DHT22;10116;53.112;7.356;2023-04-22T10:30:48;26.50;28.80
19908;DHT22;10116;53.112;7.356;2023-04-22T10:36:05;26.60;29.10
19908;DHT22;10116;53.112;7.356;2023-04-22T10:38:36;26.50;29.50
19908;DHT22;10116;53.112;7.356;2023-04-22T10:41:01;26.50;28.90
19908;DHT22;10116;53.112;7.356;2023-04-22T10:43:47;26.50;29.30
19908;DHT22;10116;53.112;7.356;2023-04-22T10:49:09;26.50;29.40
19908;DHT22;10116;53.112;7.356;2023-04-22T10:54:04;26.50;29.40
19908;DHT22;10116;53.112;7.356;2023-04-22T10:56:30;26.60;29.40
19908;DHT22;10116;53.112;7.356;2023-04-22T10:58:56;26.60;29.70
19908;DHT22;10116;53.112;7.356;2023-04-22T11:01:21;26.60;29.70
19908;DHT22;10116;53.112;7.356;2023-04-22T11:03:47;26.70;29.90
19908;DHT22;10116;53.112;7.356;2023-04-22T11:06:19;26.70;29.90
19908;DHT22;10116;53.112;7.356;2023-04-22T11:08:50;26.70;29.90
19908;DHT22;10116;53.112;7.356;2023-04-22T11:11:31;26.80;30.00
19908;DHT22;10116;53.112;7.356;2023-04-22T11:13:57;26.80;29.90
19908;DHT22;10116;53.112;7.356;2023-04-22T11:16:23;26.80;29.90
19908;DHT22;10116;53.112;7.356;2023-04-22T11:18:49;26.80;29.90
19908;DHT22;10116;53.112;7.356;2023-04-22T11:21:15;26.80;29.90
19908;DHT22;10116;53.112;7.356;2023-04-22T11:23:49;26.80;30.00
19908;DHT22;10116;53.112;7.356;2023-04-22T11:26:18;26.80;29.90
19908;DHT22;10116;53.112;7.356;2023-04-22T11:28:46;26.80;29.90
19908;DHT22;10116;53.112;7.356;2023-04-22T11:31:13;26.80;30.00
19908;DHT22;10116;53.112;7.356;2023-04-22T11:33:39;26.80;30.20
19908;DHT22;10116;53.112;7.356;2023-04-22T11:36:09;26.80;29.90
19908;DHT22;10116;53.112;7.356;2023-04-22T11:38:36;26.80;29.90
19908;DHT22;10116;53.112;7.356;2023-04-22T11:41:01;26.90;30.00
19908;DHT22;10116;53.112;7.356;2023-04-22T11:43:29;26.80;29.90
19908;DHT22;10116;53.112;7.356;2023-04-22T11:45:56;26.80;30.80
19908;DHT22;10116;53.112;7.356;2023-04-22T11:48:22;26.80;29.90
19908;DHT22;10116;53.112;7.356;2023-04-22T11:50:47;26.90;30.00
19908;DHT22;10116;53.112;7.356;2023-04-22T11:53:17;26.90;29.90
19908;DHT22;10116;53.112;7.356;2023-04-22T11:55:44;26.90;30.00
19908;DHT22;10116;53.112;7.356;2023-04-22T11:58:12;26.90;30.00
19908;DHT22;10116;53.112;7.356;2023-04-22T12:05:38;26.90;30.00
19908;DHT22;10116;53.112;7.356;2023-04-22T12:08:15;26.90;30.00
19908;DHT22;10116;53.112;7.356;2023-04-22T12:11:03;26.90;30.50
19908;DHT22;10116;53.112;7.356;2023-04-22T12:16:11;26.90;30.60
19908;DHT22;10116;53.112;7.356;2023-04-22T12:23:51;26.90;30.00
19908;DHT22;10116;53.112;7.356;2023-04-22T12:26:19;26.90;30.00
19908;DHT22;10116;53.112;7.356;2023-04-22T12:28:45;26.80;29.90
19908;DHT22;10116;53.112;7.356;2023-04-22T12:31:12;26.80;30.00
19908;DHT22;10116;53.112;7.356;2023-04-22T12:33:39;26.80;29.90
19908;DHT22;10116;53.112;7.356;2023-04-22T12:36:05;26.80;29.90
19908;DHT22;10116;53.112;7.356;2023-04-22T12:38:31;26.70;30.20
19908;DHT22;10116;53.112;7.356;2023-04-22T12:40:57;26.70;29.90
19908;DHT22;10116;53.112;7.356;2023-04-22T12:43:23;26.70;29.90
19908;DHT22;10116;53.112;7.356;2023-04-22T12:45:49;26.70;29.60
19908;DHT22;10116;53.112;7.356;2023-04-22T12:48:14;26.60;29.60
19908;DHT22;10116;53.112;7.356;2023-04-22T12:50:40;26.60;30.50
19908;DHT22;10116;53.112;7.356;2023-04-22T12:53:06;26.60;29.60
19908;DHT22;10116;53.112;7.356;2023-04-22T12:55:35;26.60;29.50
19908;DHT22;10116;53.112;7.356;2023-04-22T12:58:01;26.60;28.80
19908;DHT22;10116;53.112;7.356;2023-04-22T13:00:30;26.60;28.80
19908;DHT22;10116;53.112;7.356;2023-04-22T13:02:55;26.60;29.80
19908;DHT22;10116;53.112;7.356;2023-04-22T13:05:21;26.60;28.90
19908;DHT22;10116;53.112;7.356;2023-04-22T13:07:47;26.60;28.70
19908;DHT22;10116;53.112;7.356;2023-04-22T13:10:14;26.50;28.40
19908;DHT22;10116;53.112;7.356;2023-04-22T13:12:41;26.60;29.10
19908;DHT22;10116;53.112;7.356;2023-04-22T13:15:08;26.60;29.30
19908;DHT22;10116;53.112;7.356;2023-04-22T13:17:34;26.60;29.70
19908;DHT22;10116;53.112;7.356;2023-04-22T13:20:01;26.60;29.70
19908;DHT22;10116;53.112;7.356;2023-04-22T13:22:27;26.70;29.90
19908;DHT22;10116;53.112;7.356;2023-04-22T13:24:53;26.70;29.90
19908;DHT22;10116;53.112;7.356;2023-04-22T13:27:18;26.70;29.90
19908;DHT22;10116;53.112;7.356;2023-04-22T13:29:44;26.80;30.00
19908;DHT22;10116;53.112;7.356;2023-04-22T13:32:11;26.80;30.00
19908;DHT22;10116;53.112;7.356;2023-04-22T13:34:38;26.80;30.50
19908;DHT22;10116;53.112;7.356;2023-04-22T13:37:04;26.80;30.00
19908;DHT22;10116;53.112;7.356;2023-04-22T13:39:30;26.80;29.90
19908;DHT22;10116;53.112;7.356;2023-04-22T13:41:57;26.80;30.00
19908;DHT22;10116;53.112;7.356;2023-04-22T13:44:23;26.80;29.90
19908;DHT22;10116;53.112;7.356;2023-04-22T13:46:49;26.80;29.90
19908;DHT22;10116;53.112;7.356;2023-04-22T13:49:14;26.70;30.00
19908;DHT22;10116;53.112;7.356;2023-04-22T13:51:40;26.80;30.00
19908;DHT22;10116;53.112;7.356;2023-04-22T13:54:06;26.80;31.00
19908;DHT22;10116;53.112;7.356;2023-04-22T13:56:32;26.80;29.90
19908;DHT22;10116;53.112;7.356;2023-04-22T13:58:59;26.80;29.90
19908;DHT22;10116;53.112;7.356;2023-04-22T14:01:25;26.90;30.00
19908;DHT22;10116;53.112;7.356;2023-04-22T14:03:52;26.90;30.00
19908;DHT22;10116;53.112;7.356;2023-04-22T14:06:18;26.90;30.40
19908;DHT22;10116;53.112;7.356;2023-04-22T14:08:44;26.90;30.40
19908;DHT22;10116;53.112;7.356;2023-04-22T14:11:10;26.90;30.00
19908;DHT22;10116;53.112;7.356;2023-04-22T14:13:36;26.90;30.50
19908;DHT22;10116;53.112;7.356;2023-04-22T14:16:03;26.90;30.80
19908;DHT22;10116;53.112;7.356;2023-04-22T14:18:35;26.90;30.00
19908;DHT22;10116;53.112;7.356;2023-04-22T14:21:02;26.90;31.20
19908;DHT22;10116;53.112;7.356;2023-04-22T14:23:28;26.90;30.00
19908;DHT22;10116;53.112;7.356;2023-04-22T14:25:54;26.90;30.00
19908;DHT22;10116;53.112;7.356;2023-04-22T14:28:20;26.90;30.40
19908;DHT22;10116;53.112;7.356;2023-04-22T14:30:45;26.80;30.00
19908;DHT22;10116;53.112;7.356;2023-04-22T14:33:11;26.80;29.90
19908;DHT22;10116;53.112;7.356;2023-04-22T14:35:37;26.80;29.90
19908;DHT22;10116;53.112;7.356;2023-04-22T14:38:05;26.80;29.90
19908;DHT22;10116;53.112;7.356;2023-04-22T14:40:31;26.70;30.00
19908;DHT22;10116;53.112;7.356;2023-04-22T14:42:58;26.70;29.90
19908;DHT22;10116;53.112;7.356;2023-04-22T14:45:24;26.70;31.20
19908;DHT22;10116;53.112;7.356;2023-04-22T14:47:50;26.70;30.00
19908;DHT22;10116;53.112;7.356;2023-04-22T14:50:16;26.60;29.80
19908;DHT22;10116;53.112;7.356;2023-04-22T14:52:42;26.60;30.00
19908;DHT22;10116;53.112;7.356;2023-04-22T14:55:08;26.60;29.80
19908;DHT22;10116;53.112;7.356;2023-04-22T14:57:33;26.50;29.80
19908;DHT22;10116;53.112;7.356;2023-04-22T14:59:59;26.50;29.90
19908;DHT22;10116;53.112;7.356;2023-04-22T15:02:25;26.50;29.90
19908;DHT22;10116;53.112;7.356;2023-04-22T15:04:53;26.50;29.80
19908;DHT22;10116;53.112;7.356;2023-04-22T15:07:19;26.50;29.70
19908;DHT22;10116;53.112;7.356;2023-04-22T15:09:44;26.50;29.70
19908;DHT22;10116;53.112;7.356;2023-04-22T15:12:13;26.50;29.90
19908;DHT22;10116;53.112;7.356;2023-04-22T15:14:39;26.50;30.10
19908;DHT22;10116;53.112;7.356;2023-04-22T15:17:05;26.50;29.90
19908;DHT22;10116;53.112;7.356;2023-04-22T15:19:30;26.50;29.80
19908;DHT22;10116;53.112;7.356;2023-04-22T15:21:56;26.60;29.90
19908;DHT22;10116;53.112;7.356;2023-04-22T15:24:22;26.50;30.30
19908;DHT22;10116;53.112;7.356;2023-04-22T15:26:52;26.50;30.00
19908;DHT22;10116;53.112;7.356;2023-04-22T15:29:18;26.60;30.10
19908;DHT22;10116;53.112;7.356;2023-04-22T15:31:44;26.60;30.30
19908;DHT22;10116;53.112;7.356;2023-04-22T15:34:11;26.60;30.70
19908;DHT22;10116;53.112;7.356;2023-04-22T15:36:39;26.60;30.60
19908;DHT22;10116;53.112;7.356;2023-04-22T15:39:05;26.60;31.00
19908;DHT22;10116;53.112;7.356;2023-04-22T15:41:32;26.60;31.50
19908;DHT22;10116;53.112;7.356;2023-04-22T15:44:00;26.50;30.90
19908;DHT22;10116;53.112;7.356;2023-04-22T15:46:33;26.50;31.40